Altmar, New York
Current Conditions -  °F | °C
As of 8:54 AM on Friday 19 Dec 2014 (Local Time) from KFZY Reporting Station
Overcast Overcast  
Wind Chill: 13°   Ceiling: 2000
Heat Index: 24°   Visibility: 8mi
Dew Point: 17°   Wind: 12mph
Humidity: 75%   Direction: 320°NW
Pressure: 30.13"   Gusts: NA
Location:  43.51°N, 76°W
Report Text: KFZY 191354Z AUTO 32010KT 8SM OVC020 M04/M08 A3013 RMK AO2 SNB1255E04B25E35 SLP210 P0000 T10441083
Loading
Personal Weather Stations






























Interactive Weather Map New forecast layout! Learn more

10-Day Weather Forecast

Advertisements
Track Severe Weather on mobile